createdAt,value
2019-03-25T00:01:47.724Z,66.83
2019-03-25T00:04:17.589Z,65.83
2019-03-25T00:06:47.083Z,62.80
2019-03-25T00:09:16.960Z,63.93
2019-03-25T00:11:46.631Z,61.80
2019-03-25T00:14:16.425Z,66.83
2019-03-25T00:16:45.846Z,60.00
2019-03-25T00:19:15.432Z,62.90
2019-03-25T00:21:45.228Z,60.97
2019-03-25T00:24:14.667Z,59.90
2019-03-25T00:26:44.189Z,59.70
2019-03-25T00:29:13.721Z,54.93
2019-03-25T00:31:43.263Z,57.93
2019-03-25T00:34:12.692Z,57.93
2019-03-25T00:36:42.169Z,54.03
2019-03-25T00:39:11.719Z,55.40
2019-03-25T00:41:41.301Z,56.07
2019-03-25T00:44:11.006Z,55.40
2019-03-25T00:46:40.708Z,52.80
2019-03-25T00:49:14.065Z,56.83
2019-03-25T00:51:43.944Z,59.40
2019-03-25T00:54:13.257Z,59.07
2019-03-25T00:56:42.817Z,58.23
2019-03-25T00:59:12.504Z,59.40
2019-03-25T01:01:42.129Z,60.67
2019-03-25T01:04:12.393Z,60.87
2019-03-25T01:06:44.252Z,60.23
2019-03-25T01:09:13.752Z,60.33
2019-03-25T01:11:48.937Z,52.27
2019-03-25T01:14:18.442Z,56.60
2019-03-25T01:16:48.146Z,61.40
2019-03-25T01:19:17.728Z,54.47
2019-03-25T01:21:47.299Z,57.80
2019-03-25T01:24:16.985Z,56.83
2019-03-25T01:26:46.352Z,61.70
2019-03-25T01:29:15.819Z,56.63
2019-03-25T01:31:45.763Z,60.67
2019-03-25T01:34:15.384Z,55.27
2019-03-25T01:36:45.110Z,61.07
2019-03-25T01:39:14.657Z,61.53
2019-03-25T01:41:44.228Z,52.17
2019-03-25T01:44:13.936Z,57.03
2019-03-25T01:46:43.536Z,58.90
2019-03-25T01:49:13.139Z,56.37
2019-03-25T01:51:42.739Z,57.00
2019-03-25T01:54:12.404Z,58.67
2019-03-25T01:56:42.158Z,57.83
2019-03-25T01:59:12.656Z,56.80
2019-03-25T02:01:42.388Z,59.70
2019-03-25T02:04:12.019Z,56.60
2019-03-25T02:06:41.700Z,52.90
2019-03-25T02:09:11.795Z,61.03
2019-03-25T02:11:41.367Z,60.70
2019-03-25T02:14:10.913Z,62.07
2019-03-25T02:16:41.444Z,60.23
2019-03-25T02:19:10.894Z,57.80
2019-03-25T02:21:40.387Z,58.00
2019-03-25T02:24:10.230Z,59.87
2019-03-25T02:26:39.660Z,62.27
2019-03-25T02:29:09.312Z,62.23
2019-03-25T02:31:38.842Z,66.20
2019-03-25T02:34:08.446Z,63.77
2019-03-25T02:36:38.006Z,64.23
2019-03-25T02:39:07.610Z,57.00
2019-03-25T02:41:37.324Z,60.17
2019-03-25T02:44:06.949Z,63.90
2019-03-25T02:46:36.652Z,61.53
2019-03-25T02:49:06.111Z,62.97
2019-03-25T02:51:35.692Z,63.77
2019-03-25T02:54:06.442Z,61.87
2019-03-25T02:56:36.318Z,60.73
2019-03-25T02:59:05.969Z,61.57
2019-03-25T03:01:35.493Z,65.57
2019-03-25T03:04:05.367Z,62.83
2019-03-25T03:06:34.870Z,63.50
2019-03-25T03:09:06.137Z,63.00
2019-03-25T03:11:38.685Z,55.73
2019-03-25T03:14:09.741Z,55.97
2019-03-25T03:16:39.528Z,58.97
2019-03-25T03:19:09.019Z,59.27
2019-03-25T03:21:40.656Z,53.87
2019-03-25T03:24:10.344Z,55.37
2019-03-25T03:26:40.045Z,53.77
2019-03-25T03:29:13.148Z,48.63
2019-03-25T03:31:46.896Z,51.07
2019-03-25T03:34:16.645Z,50.90
2019-03-25T03:36:46.244Z,46.83
2019-03-25T03:39:15.775Z,45.60
2019-03-25T03:41:49.060Z,47.90
2019-03-25T03:44:18.958Z,43.97
2019-03-25T03:46:49.175Z,49.40
2019-03-25T03:49:19.188Z,44.97
2019-03-25T03:51:48.835Z,45.00
2019-03-25T03:54:18.466Z,39.03
2019-03-25T03:56:48.630Z,41.23
2019-03-25T03:59:20.753Z,39.70
2019-03-25T04:01:50.411Z,41.37
2019-03-25T04:04:20.123Z,39.60
2019-03-25T04:06:49.831Z,37.10
2019-03-25T04:09:20.353Z,36.17
2019-03-25T04:11:49.976Z,36.93
2019-03-25T04:14:20.322Z,42.37
2019-03-25T04:16:50.341Z,34.20
2019-03-25T04:19:19.956Z,35.53
2019-03-25T04:21:49.557Z,36.03
2019-03-25T04:24:19.769Z,39.87
2019-03-25T04:26:49.574Z,38.50
2019-03-25T04:29:19.297Z,40.53
2019-03-25T04:31:49.058Z,40.40
2019-03-25T04:34:20.587Z,37.93
2019-03-25T04:36:50.090Z,37.13
2019-03-25T04:39:19.604Z,35.60
2019-03-25T04:41:49.153Z,38.13
2019-03-25T04:44:18.678Z,40.47
2019-03-25T04:46:48.603Z,40.13
2019-03-25T04:49:18.362Z,37.93
2019-03-25T04:51:47.922Z,36.20
2019-03-25T04:54:17.743Z,39.47
2019-03-25T04:56:47.399Z,32.80
2019-03-25T04:59:16.951Z,36.73
2019-03-25T05:01:49.341Z,38.33
2019-03-25T05:04:19.777Z,38.90
2019-03-25T05:06:49.272Z,38.33
2019-03-25T05:09:18.748Z,34.70
2019-03-25T05:11:48.351Z,35.20
2019-03-25T05:14:17.913Z,36.10
2019-03-25T05:16:47.344Z,39.00
2019-03-25T05:19:17.034Z,43.00
2019-03-25T05:21:46.798Z,39.50
2019-03-25T05:24:16.377Z,35.17
2019-03-25T05:26:50.952Z,36.63
2019-03-25T05:29:20.384Z,35.03
2019-03-25T05:31:49.893Z,38.17
2019-03-25T05:34:19.756Z,33.07
2019-03-25T05:36:49.481Z,34.00
2019-03-25T05:39:19.155Z,31.17
2019-03-25T05:41:57.507Z,32.20
2019-03-25T05:44:27.791Z,27.53
2019-03-25T05:46:58.593Z,29.60
2019-03-25T05:49:34.278Z,35.97
2019-03-25T05:52:04.496Z,30.63
2019-03-25T05:54:34.613Z,27.40
2019-03-25T05:57:04.515Z,28.83
2019-03-25T05:59:35.061Z,27.17
2019-03-25T06:02:06.729Z,30.53
2019-03-25T06:04:39.791Z,25.23
2019-03-25T06:07:11.827Z,23.80
2019-03-25T06:09:44.306Z,23.50
2019-03-25T06:12:16.318Z,21.27
2019-03-25T06:14:47.999Z,19.03
2019-03-25T06:17:17.430Z,26.17
2019-03-25T06:19:48.836Z,23.83
2019-03-25T06:22:18.378Z,17.27
2019-03-25T06:24:48.767Z,17.53
2019-03-25T06:27:19.415Z,23.47
2019-03-25T06:29:49.919Z,20.67
2019-03-25T06:32:19.930Z,22.57
2019-03-25T06:34:49.660Z,19.47
2019-03-25T06:37:19.382Z,20.27
2019-03-25T06:39:48.996Z,17.23
2019-03-25T06:42:19.478Z,14.63
2019-03-25T06:44:49.154Z,16.93
2019-03-25T06:47:18.690Z,15.67
2019-03-25T06:49:48.164Z,13.90
2019-03-25T06:52:17.656Z,16.20
2019-03-25T06:54:47.225Z,13.43
2019-03-25T06:57:25.495Z,17.83
2019-03-25T06:59:48.544Z,13.47
2019-03-25T07:02:18.139Z,14.03
2019-03-25T07:04:48.017Z,15.47
2019-03-25T07:07:37.720Z,12.97
2019-03-25T07:10:07.963Z,13.63
2019-03-25T07:12:38.306Z,10.80
2019-03-25T07:15:08.838Z,13.27
2019-03-25T07:17:38.471Z,9.43
2019-03-25T07:20:09.258Z,12.23
2019-03-25T07:22:41.437Z,11.87
2019-03-25T07:25:11.895Z,11.93
2019-03-25T07:27:41.705Z,8.97
2019-03-25T07:30:11.721Z,9.27
2019-03-25T07:32:41.572Z,10.53
2019-03-25T07:35:17.221Z,8.97
2019-03-25T07:37:47.012Z,9.40
2019-03-25T07:40:25.605Z,9.07
2019-03-25T07:42:55.115Z,10.97
2019-03-25T07:45:24.731Z,7.07
2019-03-25T07:47:54.388Z,11.23
2019-03-25T07:50:23.881Z,7.20
2019-03-25T07:52:53.322Z,9.20
2019-03-25T07:55:23.958Z,9.00
2019-03-25T07:57:54.572Z,7.10
2019-03-25T08:00:24.093Z,5.93
2019-03-25T08:02:53.840Z,6.83
2019-03-25T08:05:23.384Z,5.53
2019-03-25T08:07:52.841Z,8.87
2019-03-25T08:10:35.786Z,6.77
2019-03-25T08:13:05.359Z,4.30
2019-03-25T08:15:37.569Z,4.93
2019-03-25T08:18:07.249Z,7.63
2019-03-25T08:20:36.851Z,6.77
2019-03-25T08:23:06.416Z,6.17
2019-03-25T08:25:35.786Z,3.83
2019-03-25T08:28:06.368Z,4.57
2019-03-25T08:30:35.848Z,5.23
2019-03-25T08:33:05.369Z,5.00
2019-03-25T08:35:34.867Z,5.13
2019-03-25T08:38:04.465Z,7.43
2019-03-25T08:40:33.900Z,3.53
2019-03-25T08:43:03.403Z,5.20
2019-03-25T08:45:32.775Z,5.07
2019-03-25T08:48:02.219Z,5.23
2019-03-25T08:50:31.681Z,7.33
2019-03-25T08:53:03.806Z,7.27
2019-03-25T08:55:33.433Z,8.47
2019-03-25T08:58:12.082Z,3.77
2019-03-25T09:00:36.328Z,5.77
2019-03-25T09:03:06.004Z,4.33
2019-03-25T09:05:35.524Z,4.33
2019-03-25T09:08:05.089Z,4.67
2019-03-25T09:10:34.492Z,6.17
2019-03-25T09:13:03.952Z,5.33
2019-03-25T09:15:33.449Z,9.97
2019-03-25T09:18:02.856Z,6.27
2019-03-25T09:20:32.366Z,7.03
2019-03-25T09:23:01.750Z,5.40
2019-03-25T09:25:31.371Z,11.23
2019-03-25T09:28:02.536Z,9.13
2019-03-25T09:31:18.349Z,7.90
2019-03-25T09:33:48.300Z,6.63
2019-03-25T09:36:21.931Z,5.90
2019-03-25T09:38:51.832Z,6.20
2019-03-25T09:41:21.391Z,8.10
2019-03-25T09:43:50.860Z,8.17
2019-03-25T09:46:20.395Z,9.00
2019-03-25T09:48:49.913Z,6.90
2019-03-25T09:51:19.434Z,8.47
2019-03-25T09:53:48.799Z,9.13
2019-03-25T09:56:18.274Z,8.17
2019-03-25T09:58:47.717Z,5.63
2019-03-25T10:01:18.433Z,6.37
2019-03-25T10:03:47.941Z,7.40
2019-03-25T10:06:17.354Z,8.40
2019-03-25T10:08:46.793Z,11.00
2019-03-25T10:11:16.230Z,11.03
2019-03-25T10:13:45.796Z,8.90
2019-03-25T10:16:15.469Z,11.17
2019-03-25T10:18:44.949Z,10.67
2019-03-25T10:21:14.347Z,8.33
2019-03-25T10:23:45.381Z,10.70
2019-03-25T10:26:15.042Z,9.40
2019-03-25T10:28:49.037Z,10.07
2019-03-25T10:31:17.824Z,9.13
2019-03-25T10:33:48.235Z,11.47
2019-03-25T10:36:23.969Z,10.07
2019-03-25T10:38:53.431Z,11.50
2019-03-25T10:41:22.919Z,9.03
2019-03-25T10:43:52.327Z,6.97
2019-03-25T10:46:21.909Z,7.47
2019-03-25T10:48:51.309Z,8.53
2019-03-25T10:51:20.653Z,8.40
2019-03-25T10:53:50.003Z,10.33
2019-03-25T10:56:19.408Z,10.23
2019-03-25T10:58:57.839Z,8.67
2019-03-25T11:01:19.941Z,8.53
2019-03-25T11:03:49.477Z,7.17
2019-03-25T11:06:18.960Z,11.10
2019-03-25T11:08:48.432Z,9.63
2019-03-25T11:11:17.866Z,7.30
2019-03-25T11:13:47.372Z,7.33
2019-03-25T11:16:16.914Z,9.47
2019-03-25T11:18:47.529Z,9.20
2019-03-25T11:21:16.915Z,8.27
2019-03-25T11:23:46.459Z,7.87
2019-03-25T11:26:15.942Z,5.30
2019-03-25T11:28:45.442Z,7.37
2019-03-25T11:31:15.052Z,6.37
2019-03-25T11:33:44.529Z,6.67
2019-03-25T11:36:13.952Z,7.37
2019-03-25T11:38:43.433Z,4.60
2019-03-25T11:41:12.985Z,6.83
2019-03-25T11:43:44.509Z,5.50
2019-03-25T11:46:13.930Z,6.60
2019-03-25T11:48:46.129Z,6.03
2019-03-25T11:51:15.715Z,6.37
2019-03-25T11:53:45.203Z,6.97
2019-03-25T11:56:14.717Z,8.97
2019-03-25T11:58:44.153Z,5.97
2019-03-25T12:01:13.528Z,6.53
2019-03-25T12:03:42.984Z,6.87
2019-03-25T12:06:12.454Z,7.07
2019-03-25T12:08:44.234Z,5.83
2019-03-25T12:11:13.824Z,12.47
2019-03-25T12:13:43.323Z,8.70
2019-03-25T12:16:12.846Z,6.43
2019-03-25T12:18:42.359Z,7.53
2019-03-25T12:21:11.773Z,5.13
2019-03-25T12:23:41.267Z,4.10
2019-03-25T12:26:10.751Z,5.27
2019-03-25T12:28:40.286Z,9.93
2019-03-25T12:31:09.802Z,9.60
2019-03-25T12:33:39.163Z,5.60
2019-03-25T12:36:09.623Z,8.57
2019-03-25T12:38:39.112Z,8.03
2019-03-25T12:41:08.648Z,8.13
2019-03-25T12:43:38.300Z,6.03
2019-03-25T12:46:07.804Z,4.97
2019-03-25T12:48:37.259Z,6.03
2019-03-25T12:51:06.716Z,5.67
2019-03-25T12:53:36.173Z,6.83
2019-03-25T12:56:05.618Z,5.27
2019-03-25T12:58:34.926Z,5.67
2019-03-25T13:01:04.448Z,4.73
2019-03-25T13:03:33.915Z,7.50
2019-03-25T13:06:05.466Z,6.50
2019-03-25T13:08:34.635Z,5.27
2019-03-25T13:11:04.159Z,6.33
2019-03-25T13:13:33.635Z,7.80
2019-03-25T13:16:09.031Z,5.33
2019-03-25T13:18:38.423Z,6.53
2019-03-25T13:21:08.766Z,7.73
2019-03-25T13:23:38.951Z,7.57
2019-03-25T13:26:09.366Z,5.57
2019-03-25T13:28:38.779Z,5.43
2019-03-25T13:31:08.467Z,5.40
2019-03-25T13:33:37.965Z,4.90
2019-03-25T13:36:07.690Z,6.00
2019-03-25T13:38:37.073Z,3.73
2019-03-25T13:41:06.485Z,5.80
2019-03-25T13:43:35.960Z,6.60
2019-03-25T13:46:05.974Z,3.97
2019-03-25T13:48:35.504Z,5.30
2019-03-25T13:51:05.000Z,5.20
2019-03-25T13:53:34.497Z,4.03
2019-03-25T13:56:04.175Z,4.33
2019-03-25T13:58:33.700Z,3.33
2019-03-25T14:01:03.211Z,1.50
2019-03-25T14:03:32.687Z,1.73
2019-03-25T14:06:02.127Z,1.97
2019-03-25T14:08:31.437Z,2.10
2019-03-25T14:11:00.839Z,1.83
2019-03-25T14:13:30.311Z,1.77
2019-03-25T14:15:59.784Z,3.00
2019-03-25T14:18:29.352Z,2.23
2019-03-25T14:20:58.822Z,2.07
2019-03-25T14:23:28.296Z,3.13
2019-03-25T14:25:57.810Z,2.70
2019-03-25T14:28:27.401Z,4.10
2019-03-25T14:30:57.190Z,1.30
2019-03-25T14:33:26.947Z,1.10
2019-03-25T14:35:56.462Z,0.80
2019-03-25T14:38:27.846Z,1.70
2019-03-25T14:40:59.979Z,1.40
2019-03-25T14:43:29.486Z,1.73
2019-03-25T14:45:58.964Z,1.70
2019-03-25T14:48:28.501Z,1.10
2019-03-25T14:50:58.153Z,2.00
2019-03-25T14:53:27.664Z,1.10
2019-03-25T14:55:57.357Z,2.37
2019-03-25T14:58:26.877Z,1.90
2019-03-25T15:00:56.321Z,1.73
2019-03-25T15:03:25.773Z,2.27
2019-03-25T15:05:55.119Z,2.47
2019-03-25T15:08:24.643Z,2.40
2019-03-25T15:10:54.075Z,2.87
2019-03-25T15:13:23.571Z,3.27
2019-03-25T15:15:52.993Z,1.67
2019-03-25T15:18:22.394Z,2.27
2019-03-25T15:20:51.890Z,2.33
2019-03-25T15:23:21.398Z,1.27
2019-03-25T15:25:50.798Z,3.57
2019-03-25T15:28:20.237Z,1.63
2019-03-25T15:30:49.569Z,1.00
2019-03-25T15:33:18.983Z,2.07
2019-03-25T15:35:48.416Z,2.20
2019-03-25T15:38:17.783Z,1.50
2019-03-25T15:40:47.343Z,3.30
2019-03-25T15:43:16.794Z,1.73
2019-03-25T15:45:46.224Z,2.37
2019-03-25T15:48:15.681Z,1.43
2019-03-25T15:50:45.029Z,0.57
2019-03-25T15:53:14.500Z,1.30
2019-03-25T15:55:44.143Z,0.30
2019-03-25T15:58:13.587Z,0.57
2019-03-25T16:00:47.994Z,1.13
2019-03-25T16:03:14.272Z,1.40
2019-03-25T16:05:43.653Z,0.40
2019-03-25T16:08:13.108Z,0.20
2019-03-25T16:10:42.542Z,0.60
2019-03-25T16:13:12.019Z,0.77
2019-03-25T16:15:42.890Z,0.30
2019-03-25T16:18:31.831Z,0.27
2019-03-25T16:21:02.243Z,1.07
2019-03-25T16:23:31.735Z,0.50
2019-03-25T16:26:01.283Z,1.20
2019-03-25T16:28:30.679Z,0.20
2019-03-25T16:31:00.106Z,0.20
2019-03-25T16:33:29.481Z,1.27
2019-03-25T16:35:59.004Z,0.47
2019-03-25T16:38:28.492Z,0.57
2019-03-25T16:40:58.135Z,0.30
2019-03-25T16:43:27.682Z,0.30
2019-03-25T16:45:59.611Z,0.40
2019-03-25T16:48:28.998Z,0.80
2019-03-25T16:50:58.547Z,0.90
2019-03-25T16:53:28.120Z,0.33
2019-03-25T16:55:57.824Z,0.77
2019-03-25T16:58:27.373Z,0.60
2019-03-25T17:00:56.959Z,0.93
2019-03-25T17:03:26.484Z,0.73
2019-03-25T17:05:55.993Z,1.60
2019-03-25T17:08:25.579Z,1.83
2019-03-25T17:10:56.689Z,1.03
2019-03-25T17:13:28.431Z,1.30
2019-03-25T17:15:58.217Z,1.10
2019-03-25T17:18:27.744Z,1.60
2019-03-25T17:20:58.238Z,2.83
2019-03-25T17:23:27.561Z,1.00
2019-03-25T17:25:56.930Z,1.73
2019-03-25T17:28:26.524Z,3.57
2019-03-25T17:30:56.132Z,1.90
2019-03-25T17:33:25.542Z,1.00
2019-03-25T17:35:55.134Z,2.03
2019-03-25T17:38:24.510Z,1.30
2019-03-25T17:40:54.010Z,1.10
2019-03-25T17:43:23.501Z,1.27
2019-03-25T17:45:53.008Z,3.27
2019-03-25T17:48:22.453Z,2.00
2019-03-25T17:50:52.969Z,2.22
2019-03-25T17:53:22.580Z,1.33
2019-03-25T17:55:52.042Z,1.40
2019-03-25T17:58:21.519Z,1.20
2019-03-25T18:01:14.328Z,1.07
2019-03-25T18:03:43.979Z,1.40
2019-03-25T18:06:13.475Z,0.83
2019-03-25T18:08:42.920Z,1.13
2019-03-25T18:11:12.385Z,1.33
2019-03-25T18:13:41.844Z,1.00
2019-03-25T18:16:11.276Z,0.60
2019-03-25T18:18:40.720Z,1.77
2019-03-25T18:21:10.161Z,1.33
2019-03-25T18:23:39.750Z,1.17
2019-03-25T18:26:09.133Z,1.10
2019-03-25T18:28:38.499Z,0.53
2019-03-25T18:31:07.970Z,1.67
2019-03-25T18:33:37.329Z,1.03
2019-03-25T18:36:06.758Z,2.30
2019-03-25T18:38:36.346Z,1.67
2019-03-25T18:41:05.761Z,0.90
2019-03-25T18:43:35.417Z,0.73
2019-03-25T18:46:04.843Z,0.93
2019-03-25T18:48:34.231Z,1.87
2019-03-25T18:51:03.616Z,1.07
2019-03-25T18:53:33.125Z,2.63
2019-03-25T18:56:02.752Z,1.10
2019-03-25T18:58:32.305Z,1.47
2019-03-25T19:01:01.886Z,1.27
2019-03-25T19:03:31.603Z,1.47
2019-03-25T19:06:01.061Z,2.23
2019-03-25T19:08:32.265Z,1.60
2019-03-25T19:11:02.790Z,1.33
2019-03-25T19:13:32.235Z,3.27
2019-03-25T19:16:01.826Z,1.63
2019-03-25T19:18:31.438Z,1.80
2019-03-25T19:21:00.903Z,1.93
2019-03-25T19:23:30.300Z,2.23
2019-03-25T19:25:59.862Z,2.00
2019-03-25T19:28:29.359Z,2.73
2019-03-25T19:30:58.820Z,3.43
2019-03-25T19:33:28.571Z,2.53
2019-03-25T19:35:58.177Z,3.40
2019-03-25T19:38:27.602Z,3.50
2019-03-25T19:40:57.065Z,2.70
2019-03-25T19:43:26.773Z,4.77
2019-03-25T19:45:56.330Z,4.03
2019-03-25T19:48:25.771Z,2.57
2019-03-25T19:50:55.288Z,2.87
2019-03-25T19:53:24.766Z,2.90
2019-03-25T19:55:55.189Z,3.37
2019-03-25T19:58:24.727Z,3.10
2019-03-25T20:00:54.311Z,2.53
2019-03-25T20:03:23.734Z,2.63
2019-03-25T20:05:53.104Z,2.77
2019-03-25T20:08:22.496Z,5.33
2019-03-25T20:10:51.917Z,6.47
2019-03-25T20:13:21.729Z,5.23
2019-03-25T20:15:51.442Z,4.63
2019-03-25T20:18:21.133Z,4.27
2019-03-25T20:20:50.587Z,2.73
2019-03-25T20:23:20.168Z,3.50
2019-03-25T20:25:49.518Z,3.13
2019-03-25T20:28:18.872Z,2.13
2019-03-25T20:30:48.444Z,2.90
2019-03-25T20:33:17.850Z,4.40
2019-03-25T20:35:47.318Z,2.53
2019-03-25T20:38:16.859Z,3.73
2019-03-25T20:40:47.568Z,2.50
2019-03-25T20:43:17.312Z,3.93
2019-03-25T20:45:46.832Z,3.77
2019-03-25T20:48:16.453Z,5.10
2019-03-25T20:50:46.056Z,4.97
2019-03-25T20:53:15.831Z,3.77
2019-03-25T20:55:46.375Z,4.17
2019-03-25T20:58:15.850Z,2.83
2019-03-25T21:00:50.004Z,2.77
2019-03-25T21:03:19.494Z,2.63
2019-03-25T21:05:49.018Z,3.17
2019-03-25T21:08:18.498Z,2.17
2019-03-25T21:10:47.918Z,2.23
2019-03-25T21:13:17.864Z,4.20
2019-03-25T21:15:47.296Z,3.77
2019-03-25T21:18:16.884Z,3.13
2019-03-25T21:20:46.290Z,4.60
2019-03-25T21:23:15.748Z,4.00
2019-03-25T21:25:45.520Z,5.90
2019-03-25T21:28:15.049Z,4.67
2019-03-25T21:30:48.163Z,2.93
2019-03-25T21:33:15.899Z,2.03
2019-03-25T21:35:45.433Z,3.27
2019-03-25T21:38:14.950Z,2.00
2019-03-25T21:40:47.298Z,3.43
2019-03-25T21:43:22.083Z,2.93
2019-03-25T21:45:51.595Z,2.50
2019-03-25T21:48:21.149Z,3.03
2019-03-25T21:50:50.612Z,3.93
2019-03-25T21:53:21.099Z,3.97
2019-03-25T21:55:51.323Z,2.70
2019-03-25T21:58:20.847Z,2.40
2019-03-25T22:00:50.181Z,2.60
2019-03-25T22:03:19.651Z,4.17
2019-03-25T22:05:49.055Z,3.23
2019-03-25T22:08:19.416Z,2.80
2019-03-25T22:10:48.806Z,2.33
2019-03-25T22:13:18.255Z,2.90
2019-03-25T22:15:47.689Z,2.83
2019-03-25T22:18:18.002Z,2.73
2019-03-25T22:20:47.366Z,2.70
2019-03-25T22:23:16.892Z,5.20
2019-03-25T22:25:46.388Z,4.00
2019-03-25T22:28:15.907Z,3.37
2019-03-25T22:30:45.411Z,2.70
2019-03-25T22:33:25.311Z,2.73
2019-03-25T22:35:46.148Z,4.20
2019-03-25T22:38:15.572Z,5.03
2019-03-25T22:40:45.038Z,3.53
2019-03-25T22:43:14.399Z,3.30
2019-03-25T22:45:43.863Z,4.70
2019-03-25T22:48:13.250Z,3.70
2019-03-25T22:50:42.720Z,4.23
2019-03-25T22:53:12.045Z,3.37
2019-03-25T22:55:41.374Z,5.23
2019-03-25T22:58:10.741Z,3.13
2019-03-25T23:00:45.046Z,3.37
2019-03-25T23:03:14.965Z,5.00
2019-03-25T23:05:44.423Z,3.07
2019-03-25T23:08:13.947Z,4.20
2019-03-25T23:10:43.367Z,3.50
2019-03-25T23:13:12.817Z,3.33
2019-03-25T23:15:42.259Z,3.70
2019-03-25T23:18:11.748Z,4.57
2019-03-25T23:20:41.064Z,4.40
2019-03-25T23:23:10.470Z,4.47
2019-03-25T23:25:39.928Z,4.28
2019-03-25T23:28:09.282Z,4.10
2019-03-25T23:30:38.734Z,4.37
2019-03-25T23:33:08.245Z,4.57
2019-03-25T23:35:37.621Z,4.37
2019-03-25T23:38:06.916Z,5.43
2019-03-25T23:40:36.261Z,4.10
2019-03-25T23:43:05.671Z,5.50
2019-03-25T23:45:35.010Z,4.43
2019-03-25T23:48:04.494Z,4.50
2019-03-25T23:50:33.904Z,6.57
2019-03-25T23:53:03.335Z,4.70
2019-03-25T23:55:32.637Z,4.77
2019-03-25T23:58:02.080Z,4.13
